Time;durP1;ratioP1;P1;durP2;ratioP2;P2;SDS_P1;SDS_P2;PMS_P1;PMS_P2;Temp;Humidity;BMP_temperature;BMP_pressure;BME280_temperature;BME280_humidity;BME280_pressure;Samples;Min_cycle;Max_cycle;Signal;HPM_P1;HPM_P2
2022/03/06 00:00:11;;;;;;;9.03;6.47;;;2.90;99.90;;;;;;5000219;28;20218;-81
2022/03/06 00:02:37;;;;;;;7.30;5.87;;;3.00;99.90;;;;;;5000158;28;20683;-80
2022/03/06 00:05:05;;;;;;;7.33;6.30;;;2.90;99.90;;;;;;4985393;28;20635;-80
2022/03/06 00:07:32;;;;;;;6.57;5.83;;;3.00;99.90;;;;;;5005352;28;20622;-81
2022/03/06 00:10:00;;;;;;;6.37;5.70;;;3.00;99.90;;;;;;5060961;28;20552;-81
2022/03/06 00:12:27;;;;;;;6.87;5.57;;;3.10;99.90;;;;;;5009920;28;20708;-80
2022/03/06 00:14:53;;;;;;;6.43;5.60;;;3.10;99.90;;;;;;4996193;28;20206;-80
2022/03/06 00:17:20;;;;;;;5.30;4.80;;;3.00;99.90;;;;;;5022742;28;20290;-81
2022/03/06 00:19:47;;;;;;;5.37;4.87;;;3.10;99.90;;;;;;5041118;28;20206;-80
2022/03/06 00:22:13;;;;;;;5.00;4.33;;;3.10;99.90;;;;;;5013313;28;20294;-80
2022/03/06 00:24:40;;;;;;;4.73;4.33;;;3.00;99.90;;;;;;5056821;28;20704;-81
2022/03/06 00:27:08;;;;;;;5.50;4.90;;;3.00;99.90;;;;;;5001615;28;20210;-81
2022/03/06 00:29:35;;;;;;;5.33;4.30;;;2.80;99.90;;;;;;4985305;28;20218;-81
2022/03/06 00:32:02;;;;;;;4.97;4.43;;;2.90;99.90;;;;;;5003018;28;20205;-80
2022/03/06 00:34:28;;;;;;;4.50;4.10;;;2.90;99.90;;;;;;4996436;28;20287;-80
2022/03/06 00:36:55;;;;;;;4.30;3.90;;;3.00;99.90;;;;;;5032125;28;20199;-81
2022/03/06 00:39:21;;;;;;;4.00;3.70;;;3.00;99.90;;;;;;5059983;28;20230;-81
2022/03/06 00:41:48;;;;;;;4.40;3.97;;;3.10;99.90;;;;;;5002537;28;20214;-81
2022/03/06 00:44:16;;;;;;;4.83;4.33;;;3.10;99.90;;;;;;4990012;28;20636;-81
2022/03/06 00:46:43;;;;;;;4.20;3.80;;;3.10;99.90;;;;;;4998016;28;20801;-80
2022/03/06 00:49:09;;;;;;;4.17;3.67;;;3.10;99.90;;;;;;4988474;28;20750;-80
2022/03/06 00:51:37;;;;;;;3.87;3.53;;;3.10;99.90;;;;;;5003732;28;20267;-81
2022/03/06 00:54:04;;;;;;;4.13;3.73;;;3.10;99.90;;;;;;4991381;28;20207;-81
2022/03/06 00:56:30;;;;;;;4.37;3.53;;;3.10;99.90;;;;;;4991180;28;20826;-82
2022/03/06 00:58:57;;;;;;;4.40;3.50;;;3.10;99.90;;;;;;4988326;28;20202;-80
2022/03/06 01:01:25;;;;;;;3.90;3.60;;;3.10;99.90;;;;;;5046700;28;20213;-80
2022/03/06 01:03:52;;;;;;;5.90;3.67;;;3.10;99.90;;;;;;5043769;28;20230;-80
2022/03/06 01:06:19;;;;;;;4.33;3.67;;;3.10;99.90;;;;;;4994638;28;20800;-81
2022/03/06 01:08:45;;;;;;;4.70;3.80;;;3.00;99.90;;;;;;4991379;28;20210;-80
2022/03/06 01:11:12;;;;;;;4.53;3.50;;;3.10;99.90;;;;;;5043448;28;20548;-81
2022/03/06 01:13:38;;;;;;;4.00;3.70;;;3.10;99.90;;;;;;4989598;28;20895;-80
2022/03/06 01:16:05;;;;;;;4.60;3.60;;;3.00;99.90;;;;;;4994098;28;20207;-81
2022/03/06 01:18:33;;;;;;;4.20;3.80;;;3.10;99.90;;;;;;4993026;28;20263;-81
2022/03/06 01:21:00;;;;;;;4.37;3.97;;;3.00;99.90;;;;;;5018603;28;20233;-80
2022/03/06 01:23:28;;;;;;;4.03;3.67;;;3.10;99.90;;;;;;4995521;28;20222;-81
2022/03/06 01:25:55;;;;;;;4.67;4.20;;;3.00;99.90;;;;;;4997334;28;20268;-80
2022/03/06 01:28:21;;;;;;;6.43;4.27;;;3.00;99.90;;;;;;5000277;28;20545;-80
2022/03/06 01:30:48;;;;;;;5.07;4.67;;;3.00;99.90;;;;;;4988847;28;20642;-81
2022/03/06 01:33:15;;;;;;;5.30;4.70;;;3.00;99.90;;;;;;4988870;28;20214;-80
2022/03/06 01:35:44;;;;;;;4.97;4.53;;;3.00;99.90;;;;;;5002460;28;20622;-81
2022/03/06 01:38:11;;;;;;;5.13;4.50;;;3.00;99.90;;;;;;4998884;28;20238;-80
2022/03/06 01:40:38;;;;;;;5.13;4.70;;;3.00;99.90;;;;;;4989041;28;20211;-80
2022/03/06 01:43:04;;;;;;;6.33;5.03;;;3.00;99.90;;;;;;4992651;28;20623;-80
2022/03/06 01:45:31;;;;;;;5.27;4.77;;;3.00;99.90;;;;;;5054073;28;20211;-81
2022/03/06 01:47:59;;;;;;;6.33;4.80;;;2.90;99.90;;;;;;5001100;28;20210;-80
2022/03/06 01:50:27;;;;;;;5.70;5.00;;;2.90;99.90;;;;;;4995084;28;20324;-81
2022/03/06 01:52:57;;;;;;;5.67;4.90;;;2.90;99.90;;;;;;4998461;28;20202;-81
2022/03/06 01:55:25;;;;;;;5.37;4.87;;;2.90;99.90;;;;;;4989757;28;20210;-81
2022/03/06 01:57:54;;;;;;;6.70;5.23;;;2.90;99.90;;;;;;5001342;28;20973;-80
2022/03/06 02:00:22;;;;;;;12.33;5.53;;;2.90;99.90;;;;;;4985966;28;20350;-80
2022/03/06 02:02:50;;;;;;;5.70;4.63;;;2.90;99.90;;;;;;5002630;28;20206;-82
2022/03/06 02:05:18;;;;;;;6.27;5.50;;;2.90;99.90;;;;;;4989643;28;20317;-83
2022/03/06 02:07:45;;;;;;;5.60;5.10;;;2.90;99.90;;;;;;4998330;28;20267;-80
2022/03/06 02:10:14;;;;;;;5.93;4.70;;;2.90;99.90;;;;;;4987283;28;20263;-76
2022/03/06 02:12:42;;;;;;;5.83;4.87;;;2.90;99.90;;;;;;5000099;28;20313;-80
2022/03/06 02:15:11;;;;;;;4.80;4.40;;;2.90;99.90;;;;;;4997415;28;20270;-78
2022/03/06 02:17:38;;;;;;;5.53;4.90;;;2.90;99.90;;;;;;4997160;28;20210;-78
2022/03/06 02:20:08;;;;;;;5.27;4.77;;;2.90;99.90;;;;;;4988100;28;20210;-79
2022/03/06 02:22:37;;;;;;;7.23;4.80;;;2.90;99.90;;;;;;4996685;28;20203;-79
2022/03/06 02:25:07;;;;;;;5.77;4.80;;;2.90;99.90;;;;;;4985945;28;20234;-83
2022/03/06 02:27:33;;;;;;;4.97;4.57;;;2.90;99.90;;;;;;4994942;28;20806;-82
2022/03/06 02:30:00;;;;;;;5.13;4.50;;;2.90;99.90;;;;;;4985969;28;20218;-83
2022/03/06 02:32:27;;;;;;;4.80;4.20;;;2.90;99.90;;;;;;4996076;28;20704;-83
2022/03/06 02:34:54;;;;;;;5.20;4.13;;;2.90;99.90;;;;;;4984435;28;20244;-83
2022/03/06 02:37:22;;;;;;;4.73;4.27;;;2.90;99.90;;;;;;5012735;28;20264;-82
2022/03/06 02:39:50;;;;;;;5.80;4.40;;;2.90;99.90;;;;;;4979229;28;20266;-82
2022/03/06 02:42:28;;;;;;;5.50;4.13;;;2.90;99.90;;;;;;4990959;28;20743;-83
2022/03/06 02:44:55;;;;;;;4.67;4.27;;;2.90;99.90;;;;;;4994051;28;20226;-82
2022/03/06 02:47:22;;;;;;;6.10;4.60;;;2.90;99.90;;;;;;5007392;28;20211;-81
2022/03/06 02:49:49;;;;;;;7.87;4.60;;;2.90;99.90;;;;;;4984721;28;20267;-81
2022/03/06 02:52:16;;;;;;;7.00;5.00;;;2.90;99.90;;;;;;5008092;28;20221;-81
2022/03/06 02:54:43;;;;;;;5.10;4.23;;;2.80;99.90;;;;;;4986858;28;20202;-81
2022/03/06 02:57:11;;;;;;;5.50;4.23;;;2.80;99.90;;;;;;4998222;28;20234;-81
2022/03/06 02:59:39;;;;;;;5.27;4.77;;;2.80;99.90;;;;;;4984602;28;20262;-80
2022/03/06 03:02:06;;;;;;;5.70;4.57;;;2.80;99.90;;;;;;5005120;28;20202;-81
2022/03/06 03:04:33;;;;;;;5.60;4.70;;;2.80;99.90;;;;;;4983011;28;20276;-81
2022/03/06 03:07:03;;;;;;;4.60;4.10;;;2.80;99.90;;;;;;5001175;28;20214;-81
2022/03/06 03:09:30;;;;;;;5.37;4.73;;;2.80;99.90;;;;;;5001719;28;20206;-82
2022/03/06 03:11:56;;;;;;;5.53;4.20;;;2.80;99.90;;;;;;5033846;28;20230;-81
2022/03/06 03:14:25;;;;;;;5.40;4.47;;;2.80;99.90;;;;;;5031535;28;20284;-82
2022/03/06 03:16:51;;;;;;;4.73;4.23;;;2.80;99.90;;;;;;4992246;28;20217;-80
2022/03/06 03:19:18;;;;;;;5.40;4.57;;;2.80;99.90;;;;;;4990485;28;20211;-81
2022/03/06 03:21:45;;;;;;;6.87;4.77;;;2.70;99.90;;;;;;4993334;28;20249;-81
2022/03/06 03:24:12;;;;;;;4.83;4.40;;;2.70;99.90;;;;;;4984566;28;20275;-81
2022/03/06 03:26:39;;;;;;;6.03;3.80;;;2.70;99.90;;;;;;4997348;28;20571;-81
2022/03/06 03:29:05;;;;;;;4.80;3.73;;;2.70;99.90;;;;;;4994581;28;20421;-80
2022/03/06 03:31:34;;;;;;;3.63;3.33;;;2.70;99.90;;;;;;5047259;28;20210;-81
2022/03/06 03:34:00;;;;;;;3.83;3.40;;;2.70;99.90;;;;;;5022846;28;20596;-81
2022/03/06 03:36:27;;;;;;;3.93;3.53;;;2.80;99.90;;;;;;4988082;28;20210;-80
2022/03/06 03:38:54;;;;;;;3.50;3.20;;;2.70;99.90;;;;;;4993443;28;20271;-81
2022/03/06 03:41:22;;;;;;;3.57;3.20;;;2.70;99.90;;;;;;4990587;28;20244;-81
2022/03/06 03:43:48;;;;;;;3.53;3.23;;;2.70;99.90;;;;;;4987104;28;20335;-81
2022/03/06 03:46:15;;;;;;;4.07;3.50;;;2.70;99.90;;;;;;4989823;28;20611;-78
2022/03/06 03:48:43;;;;;;;3.27;2.97;;;2.70;99.90;;;;;;4996457;28;20649;-78
2022/03/06 03:51:10;;;;;;;6.50;3.10;;;2.70;99.90;;;;;;4991379;28;20216;-75
2022/03/06 03:53:37;;;;;;;3.17;2.97;;;2.70;99.90;;;;;;4987806;28;20264;-75
2022/03/06 03:56:07;;;;;;;3.97;3.50;;;2.70;99.90;;;;;;4994373;28;20234;-75
2022/03/06 03:58:34;;;;;;;3.63;3.23;;;2.70;99.90;;;;;;4997543;28;20210;-75
2022/03/06 04:01:04;;;;;;;3.53;3.23;;;2.70;99.90;;;;;;4986271;28;20654;-81
2022/03/06 04:03:31;;;;;;;2.87;2.67;;;2.60;99.90;;;;;;4989258;28;20298;-80
2022/03/06 04:05:59;;;;;;;3.20;2.90;;;2.60;99.90;;;;;;4992979;28;20237;-80
2022/03/06 04:08:25;;;;;;;2.37;2.23;;;2.60;99.90;;;;;;4997746;28;20236;-80
2022/03/06 04:10:52;;;;;;;2.47;2.27;;;2.60;99.90;;;;;;4992855;28;20279;-80
2022/03/06 04:13:19;;;;;;;3.43;2.73;;;2.60;99.90;;;;;;4999554;28;20206;-79
2022/03/06 04:15:47;;;;;;;2.50;2.30;;;2.60;99.90;;;;;;4988108;28;20206;-80
2022/03/06 04:18:13;;;;;;;2.60;2.10;;;2.60;99.90;;;;;;4996189;28;20626;-80
2022/03/06 04:20:40;;;;;;;2.50;2.30;;;2.60;99.90;;;;;;5073899;28;20229;-84
2022/03/06 04:23:08;;;;;;;2.77;2.30;;;2.60;99.90;;;;;;5004265;28;20734;-76
2022/03/06 04:25:35;;;;;;;2.70;2.27;;;2.60;99.90;;;;;;4985434;28;20303;-76
2022/03/06 04:28:01;;;;;;;2.20;2.10;;;2.70;99.90;;;;;;4995351;28;20215;-76
2022/03/06 04:30:28;;;;;;;2.90;1.90;;;2.60;99.90;;;;;;5078643;28;21012;-79
2022/03/06 04:32:55;;;;;;;3.40;2.30;;;2.60;99.90;;;;;;5004743;28;20210;-78
2022/03/06 04:35:21;;;;;;;2.20;2.00;;;2.60;99.90;;;;;;4984937;28;20248;-78
2022/03/06 04:37:48;;;;;;;2.03;1.87;;;2.60;99.90;;;;;;5000481;28;20621;-78
2022/03/06 04:40:16;;;;;;;2.67;2.47;;;2.60;99.90;;;;;;5041244;28;20205;-79
2022/03/06 04:42:45;;;;;;;2.70;2.50;;;2.60;99.90;;;;;;4995833;28;20657;-81
2022/03/06 04:45:11;;;;;;;2.93;2.40;;;2.50;99.90;;;;;;4968701;28;20247;-82
2022/03/06 04:47:38;;;;;;;2.87;2.33;;;2.60;99.90;;;;;;5001609;28;20206;-81
2022/03/06 04:50:06;;;;;;;2.80;2.60;;;2.60;99.90;;;;;;4986151;28;20210;-81
2022/03/06 04:52:32;;;;;;;2.40;2.20;;;2.50;99.90;;;;;;5004533;28;20214;-81
2022/03/06 04:54:59;;;;;;;3.63;2.80;;;2.50;99.90;;;;;;5053570;28;20251;-82
2022/03/06 04:57:27;;;;;;;2.80;2.60;;;2.40;99.90;;;;;;5007257;28;20296;-84
2022/03/06 04:59:54;;;;;;;4.03;2.67;;;2.40;99.90;;;;;;5068511;28;20213;-82
2022/03/06 05:02:20;;;;;;;2.60;2.40;;;2.40;99.90;;;;;;5006350;28;20251;-82
2022/03/06 05:04:47;;;;;;;2.83;2.63;;;2.50;99.90;;;;;;4986586;28;20240;-82
2022/03/06 05:07:14;;;;;;;2.93;2.67;;;2.50;99.90;;;;;;5004923;28;20983;-83
2022/03/06 05:09:40;;;;;;;2.77;2.57;;;2.40;99.90;;;;;;5047512;28;20335;-85
2022/03/06 05:12:08;;;;;;;3.90;3.37;;;2.50;99.90;;;;;;5034574;28;20716;-87
2022/03/06 05:14:36;;;;;;;3.80;3.20;;;2.50;99.90;;;;;;5002908;28;20256;-86
2022/03/06 05:17:03;;;;;;;3.47;2.90;;;2.50;99.90;;;;;;5014140;28;20240;-85
2022/03/06 05:19:30;;;;;;;3.87;3.20;;;2.60;99.90;;;;;;4986989;28;20310;-77
2022/03/06 05:21:56;;;;;;;3.83;3.40;;;2.50;99.90;;;;;;5009474;28;20676;-77
2022/03/06 05:24:23;;;;;;;3.67;2.90;;;2.50;99.90;;;;;;4983144;28;20239;-78
2022/03/06 05:26:50;;;;;;;3.87;3.47;;;2.50;99.90;;;;;;5007330;28;20210;-78
2022/03/06 05:29:17;;;;;;;3.77;3.47;;;2.40;99.90;;;;;;4987059;28;20211;-82
2022/03/06 05:31:45;;;;;;;4.17;3.37;;;2.50;99.90;;;;;;5022559;28;20332;-82
2022/03/06 05:34:12;;;;;;;4.53;3.33;;;2.50;99.90;;;;;;5047540;28;20211;-81
2022/03/06 05:36:38;;;;;;;3.57;3.20;;;2.60;99.90;;;;;;5037315;28;20210;-82
2022/03/06 05:39:05;;;;;;;4.97;3.93;;;2.60;99.90;;;;;;5025786;28;20207;-81
2022/03/06 05:41:32;;;;;;;5.63;3.60;;;2.50;99.90;;;;;;5006794;28;20206;-82
2022/03/06 05:43:58;;;;;;;4.03;3.70;;;2.50;99.90;;;;;;4996621;28;20214;-84
2022/03/06 05:46:25;;;;;;;4.40;3.90;;;2.60;99.90;;;;;;5032000;28;20234;-82
2022/03/06 05:48:53;;;;;;;5.07;3.80;;;2.50;99.90;;;;;;5044265;28;20206;-82
2022/03/06 05:51:20;;;;;;;3.97;3.60;;;2.50;99.90;;;;;;5001361;28;20272;-75
2022/03/06 05:53:46;;;;;;;4.20;3.80;;;2.60;99.90;;;;;;4985713;28;20495;-75
2022/03/06 05:56:13;;;;;;;3.80;3.50;;;2.50;99.90;;;;;;4998739;28;20238;-75
2022/03/06 05:58:39;;;;;;;3.97;3.57;;;2.50;99.90;;;;;;4996549;28;20239;-75
2022/03/06 06:01:06;;;;;;;4.30;3.90;;;2.50;99.90;;;;;;5039393;28;20692;-75
2022/03/06 06:03:33;;;;;;;4.37;3.97;;;2.50;99.90;;;;;;4991644;28;20264;-81
2022/03/06 06:06:01;;;;;;;3.60;3.30;;;2.50;99.90;;;;;;4995312;28;20238;-79
2022/03/06 06:08:27;;;;;;;4.20;3.70;;;2.50;99.90;;;;;;4983222;28;20210;-79
2022/03/06 06:10:54;;;;;;;3.87;3.63;;;2.60;99.90;;;;;;5040383;28;20230;-80
2022/03/06 06:13:21;;;;;;;3.60;3.40;;;2.50;99.90;;;;;;5001622;28;20626;-78
2022/03/06 06:15:48;;;;;;;7.93;3.93;;;2.50;99.90;;;;;;5042809;28;20207;-79
2022/03/06 06:18:14;;;;;;;4.30;4.00;;;2.50;99.90;;;;;;5022617;28;20222;-79
2022/03/06 06:20:41;;;;;;;4.53;3.80;;;2.50;99.90;;;;;;5043813;28;20556;-79
2022/03/06 06:23:09;;;;;;;4.30;3.90;;;2.60;99.90;;;;;;4998870;28;20549;-78
2022/03/06 06:25:35;;;;;;;3.93;3.53;;;2.60;99.90;;;;;;4995473;28;20731;-79
2022/03/06 06:28:02;;;;;;;4.07;3.67;;;2.60;99.90;;;;;;5003032;28;20923;-79
2022/03/06 06:30:29;;;;;;;4.20;3.80;;;2.60;99.90;;;;;;4994923;28;20692;-79
2022/03/06 06:32:55;;;;;;;4.10;3.70;;;2.60;99.90;;;;;;4983189;28;20628;-80
2022/03/06 06:35:22;;;;;;;5.50;4.10;;;2.60;99.90;;;;;;4990638;28;20616;-79
2022/03/06 06:37:49;;;;;;;5.07;4.00;;;2.60;99.90;;;;;;4993219;28;20576;-80
2022/03/06 06:40:18;;;;;;;4.33;3.73;;;2.60;99.90;;;;;;4990324;28;20561;-81
2022/03/06 06:42:45;;;;;;;4.50;3.70;;;2.60;99.90;;;;;;5000706;28;20283;-82
2022/03/06 06:45:12;;;;;;;4.33;3.93;;;2.60;99.90;;;;;;5003224;28;20244;-79
2022/03/06 06:47:38;;;;;;;3.93;3.63;;;2.50;99.90;;;;;;4988059;28;20210;-78
2022/03/06 06:50:06;;;;;;;4.30;3.90;;;2.50;99.90;;;;;;5004873;28;20214;-78
2022/03/06 06:52:32;;;;;;;5.03;4.53;;;2.60;99.90;;;;;;4991839;28;20290;-78
2022/03/06 06:54:59;;;;;;;7.07;4.27;;;2.60;99.90;;;;;;4999413;28;20945;-78
2022/03/06 06:57:27;;;;;;;4.50;4.10;;;2.60;99.90;;;;;;4991218;28;20238;-78
2022/03/06 06:59:54;;;;;;;6.00;4.83;;;2.60;99.90;;;;;;4989591;28;20214;-78
2022/03/06 07:02:20;;;;;;;4.47;4.17;;;2.60;99.90;;;;;;4995012;28;20214;-78
2022/03/06 07:04:47;;;;;;;4.80;4.20;;;2.60;99.90;;;;;;5055086;28;20303;-81
2022/03/06 07:07:13;;;;;;;4.47;4.07;;;2.70;99.90;;;;;;4991960;28;20211;-81
2022/03/06 07:09:40;;;;;;;5.30;4.90;;;2.60;99.90;;;;;;4980433;28;20633;-81
2022/03/06 07:12:08;;;;;;;4.30;4.00;;;2.70;99.90;;;;;;5001733;28;20987;-82
2022/03/06 07:14:36;;;;;;;5.17;4.60;;;2.60;99.90;;;;;;4989010;28;20210;-81
2022/03/06 07:17:04;;;;;;;5.10;4.70;;;2.60;99.90;;;;;;4994389;28;20217;-81
2022/03/06 07:19:30;;;;;;;4.90;4.53;;;2.60;99.90;;;;;;4991468;28;20207;-81
2022/03/06 07:21:58;;;;;;;5.17;4.77;;;2.60;99.90;;;;;;4997532;28;20777;-77
2022/03/06 07:24:24;;;;;;;4.77;4.27;;;2.70;99.90;;;;;;4987313;28;21008;-78
2022/03/06 07:26:51;;;;;;;4.80;4.43;;;2.70;99.90;;;;;;5005319;28;20291;-77
2022/03/06 07:29:18;;;;;;;4.80;4.40;;;2.90;99.90;;;;;;4984698;28;20742;-80
2022/03/06 07:31:46;;;;;;;4.57;4.27;;;2.90;99.90;;;;;;4998124;28;20248;-81
2022/03/06 07:34:12;;;;;;;4.93;4.57;;;3.00;99.90;;;;;;4982552;28;20287;-80
2022/03/06 07:36:39;;;;;;;5.33;4.87;;;3.00;99.90;;;;;;4986973;28;20206;-80
2022/03/06 07:39:06;;;;;;;4.93;4.63;;;3.10;99.90;;;;;;5017931;28;20228;-80
2022/03/06 07:41:32;;;;;;;5.37;4.90;;;3.00;99.90;;;;;;5009589;28;20210;-80
2022/03/06 07:43:59;;;;;;;4.70;4.40;;;3.00;99.90;;;;;;4987939;28;20275;-80
2022/03/06 07:46:25;;;;;;;5.30;4.90;;;3.00;99.90;;;;;;5000859;28;20322;-80
2022/03/06 07:48:53;;;;;;;4.80;4.40;;;3.00;99.90;;;;;;4988013;28;20202;-80
2022/03/06 07:51:20;;;;;;;5.17;4.53;;;3.00;99.90;;;;;;4998372;28;20249;-80
2022/03/06 07:53:47;;;;;;;5.10;4.50;;;3.00;99.90;;;;;;4988366;28;20597;-80
2022/03/06 07:56:14;;;;;;;4.87;4.47;;;3.00;99.90;;;;;;4995745;28;20651;-79
2022/03/06 07:58:40;;;;;;;4.77;4.27;;;3.10;99.90;;;;;;4985271;28;20222;-79
2022/03/06 08:01:07;;;;;;;4.23;3.93;;;3.10;99.90;;;;;;4995473;28;20210;-77
2022/03/06 08:03:33;;;;;;;4.60;4.20;;;3.10;99.90;;;;;;4982173;28;20215;-80
2022/03/06 08:06:03;;;;;;;5.30;4.33;;;3.10;99.90;;;;;;5000868;28;20230;-79
2022/03/06 08:08:30;;;;;;;4.33;3.97;;;3.10;99.90;;;;;;5001445;28;20206;-80
2022/03/06 08:10:57;;;;;;;4.33;4.00;;;3.10;99.90;;;;;;4996383;28;20642;-81
2022/03/06 08:13:23;;;;;;;4.10;3.80;;;3.10;99.90;;;;;;4982426;28;20230;-81
2022/03/06 08:15:50;;;;;;;3.77;3.53;;;3.10;99.90;;;;;;4995655;28;20749;-79
2022/03/06 08:18:16;;;;;;;4.27;3.87;;;3.10;99.90;;;;;;4980951;28;20214;-79
2022/03/06 08:20:43;;;;;;;3.90;3.60;;;3.00;99.90;;;;;;4993330;28;20215;-79
2022/03/06 08:23:14;;;;;;;3.77;3.47;;;3.00;99.90;;;;;;4977667;28;20259;-80
2022/03/06 08:25:41;;;;;;;4.33;4.03;;;3.10;99.90;;;;;;5006117;28;20219;-81
2022/03/06 08:28:07;;;;;;;7.33;3.63;;;3.10;99.90;;;;;;4988935;28;20274;-80
2022/03/06 08:30:34;;;;;;;4.30;4.00;;;3.10;99.90;;;;;;4997789;28;20736;-82
2022/03/06 08:33:01;;;;;;;4.33;4.03;;;3.10;99.90;;;;;;4981310;28;20287;-83
2022/03/06 08:35:27;;;;;;;4.33;3.93;;;3.10;99.90;;;;;;5003921;28;20280;-82
2022/03/06 08:37:54;;;;;;;3.73;3.53;;;3.00;99.90;;;;;;4986516;28;20734;-81
2022/03/06 08:40:25;;;;;;;3.90;3.57;;;3.10;99.90;;;;;;5003646;28;20210;-83
2022/03/06 08:42:51;;;;;;;4.67;3.37;;;3.10;99.90;;;;;;4992734;28;20219;-83
2022/03/06 08:45:18;;;;;;;3.77;3.20;;;3.20;99.90;;;;;;4995660;28;20213;-82
2022/03/06 08:47:45;;;;;;;4.10;3.80;;;3.10;99.90;;;;;;4985765;28;20651;-82
2022/03/06 08:50:12;;;;;;;3.57;3.27;;;3.10;99.90;;;;;;4991494;28;20255;-79
2022/03/06 08:52:38;;;;;;;4.03;3.63;;;3.10;99.90;;;;;;4987099;28;20653;-81
2022/03/06 08:55:08;;;;;;;3.47;3.23;;;3.20;99.90;;;;;;5004760;28;20669;-81
2022/03/06 08:57:36;;;;;;;3.47;3.23;;;3.10;99.90;;;;;;4978722;28;20294;-82
2022/03/06 09:00:05;;;;;;;3.53;3.20;;;3.10;99.90;;;;;;4994405;28;20207;-82
2022/03/06 09:02:32;;;;;;;4.27;3.87;;;3.10;99.90;;;;;;4981629;28;20214;-81
2022/03/06 09:05:00;;;;;;;4.03;3.40;;;3.20;99.90;;;;;;4979402;28;20214;-82
2022/03/06 09:07:27;;;;;;;3.63;3.33;;;3.20;99.90;;;;;;4977906;28;20237;-80
2022/03/06 09:09:54;;;;;;;3.20;3.00;;;3.20;99.90;;;;;;5031280;28;20211;-81
2022/03/06 09:12:22;;;;;;;4.27;3.67;;;3.30;99.90;;;;;;4981229;28;20229;-80
2022/03/06 09:14:52;;;;;;;6.53;3.50;;;3.40;99.90;;;;;;4992343;28;20690;-82
2022/03/06 09:17:20;;;;;;;3.57;3.20;;;3.30;99.90;;;;;;4980860;28;20207;-82
2022/03/06 09:19:47;;;;;;;3.13;2.83;;;3.30;99.90;;;;;;4985257;28;20216;-81
2022/03/06 09:22:14;;;;;;;5.47;3.00;;;3.30;99.90;;;;;;4975662;28;20260;-82
2022/03/06 09:24:40;;;;;;;3.47;3.13;;;3.30;99.90;;;;;;4992102;28;20214;-82
2022/03/06 09:27:07;;;;;;;4.00;3.00;;;3.30;99.90;;;;;;4982114;28;20307;-82
2022/03/06 09:29:34;;;;;;;3.43;3.13;;;3.30;99.90;;;;;;5051613;28;20211;-82
2022/03/06 09:32:02;;;;;;;3.40;3.10;;;3.30;99.90;;;;;;4981448;28;20202;-81
2022/03/06 09:34:29;;;;;;;3.73;3.00;;;3.30;99.90;;;;;;4991124;28;20295;-83
2022/03/06 09:36:55;;;;;;;3.37;3.03;;;3.40;99.90;;;;;;4984928;28;20211;-82
2022/03/06 09:39:22;;;;;;;3.37;3.07;;;3.40;99.90;;;;;;4992612;28;20617;-81
2022/03/06 09:41:50;;;;;;;3.37;3.13;;;3.40;99.90;;;;;;4990972;28;20259;-81
2022/03/06 09:44:17;;;;;;;5.57;2.83;;;3.50;99.90;;;;;;4986288;28;20216;-81
2022/03/06 09:46:44;;;;;;;9.50;3.63;;;3.50;99.90;;;;;;4981444;28;20640;-81
2022/03/06 09:49:12;;;;;;;3.40;3.10;;;3.50;99.90;;;;;;5071220;28;20207;-82
2022/03/06 09:51:41;;;;;;;3.60;3.30;;;3.50;99.90;;;;;;4989345;28;20211;-82
2022/03/06 09:54:09;;;;;;;3.17;2.90;;;3.50;99.90;;;;;;4990129;28;20214;-81
2022/03/06 09:56:36;;;;;;;7.13;3.20;;;3.50;99.90;;;;;;4981526;28;20238;-81
2022/03/06 09:59:03;;;;;;;3.00;2.80;;;3.60;99.90;;;;;;5050535;28;20657;-83
2022/03/06 10:01:30;;;;;;;3.17;2.80;;;3.70;99.90;;;;;;4992413;28;20238;-83
2022/03/06 10:03:57;;;;;;;2.77;2.43;;;3.70;99.90;;;;;;4985096;28;20865;-81
2022/03/06 10:06:25;;;;;;;4.07;2.93;;;3.70;99.90;;;;;;4988688;28;20296;-82
2022/03/06 10:09:03;;;;;;;3.17;2.87;;;3.70;99.90;;;;;;4981036;28;20225;-82
2022/03/06 10:11:30;;;;;;;2.77;2.57;;;3.80;99.90;;;;;;4998889;28;20245;-82
2022/03/06 10:13:56;;;;;;;2.70;2.50;;;3.80;99.90;;;;;;4973758;28;20622;-82
2022/03/06 10:16:23;;;;;;;3.67;3.30;;;3.80;99.90;;;;;;4994884;28;20215;-82
2022/03/06 10:18:51;;;;;;;3.37;2.67;;;3.80;99.90;;;;;;5067625;28;20738;-84
2022/03/06 10:21:23;;;;;;;3.27;2.80;;;3.80;99.90;;;;;;4993280;28;20222;-82
2022/03/06 10:23:54;;;;;;;3.70;2.57;;;3.70;99.90;;;;;;4999366;28;20214;-82
2022/03/06 10:26:22;;;;;;;2.37;2.27;;;3.70;99.90;;;;;;5018406;28;20647;-82
2022/03/06 10:28:52;;;;;;;3.20;2.90;;;3.70;99.90;;;;;;4980611;28;20210;-82
2022/03/06 10:31:21;;;;;;;2.90;2.70;;;3.70;99.90;;;;;;4994887;28;20657;-83
2022/03/06 10:33:59;;;;;;;3.10;2.80;;;3.70;99.90;;;;;;4982185;28;20223;-82
2022/03/06 10:36:38;;;;;;;2.90;2.70;;;3.60;99.90;;;;;;5009912;28;20217;-82
2022/03/06 10:39:14;;;;;;;2.93;2.63;;;3.50;99.90;;;;;;5015958;28;20225;-82
2022/03/06 10:41:42;;;;;;;3.13;2.93;;;3.50;99.90;;;;;;5040883;28;20210;-83
2022/03/06 10:44:11;;;;;;;11.03;3.10;;;3.50;99.90;;;;;;5011784;28;20221;-83
2022/03/06 10:46:39;;;;;;;6.13;2.70;;;3.50;99.90;;;;;;4993295;28;20262;-84
2022/03/06 10:49:13;;;;;;;3.87;3.00;;;3.50;99.90;;;;;;4991691;28;20214;-82
2022/03/06 10:51:42;;;;;;;2.93;2.73;;;3.50;99.90;;;;;;4994910;28;20297;-83
2022/03/06 10:54:10;;;;;;;3.37;2.63;;;3.60;99.90;;;;;;4990872;28;20659;-83
2022/03/06 10:56:38;;;;;;;2.80;2.60;;;3.60;99.90;;;;;;4989839;28;20254;-83
2022/03/06 10:59:07;;;;;;;3.07;2.87;;;3.60;99.90;;;;;;4995200;28;20218;-83
2022/03/06 11:01:34;;;;;;;2.70;2.60;;;3.70;99.90;;;;;;4993907;28;20251;-83
2022/03/06 11:04:03;;;;;;;2.90;2.70;;;3.70;99.90;;;;;;4992585;28;20786;-87
2022/03/06 11:06:33;;;;;;;2.93;2.70;;;3.70;99.90;;;;;;5028983;28;20233;-83
2022/03/06 11:09:00;;;;;;;3.03;2.83;;;3.80;99.90;;;;;;5003031;28;20255;-83
2022/03/06 11:11:29;;;;;;;3.10;2.80;;;3.80;99.90;;;;;;4982736;28;20238;-83
2022/03/06 11:13:56;;;;;;;4.90;2.87;;;3.80;99.90;;;;;;4993366;28;20327;-83
2022/03/06 11:16:23;;;;;;;3.80;3.10;;;3.90;99.90;;;;;;4988469;28;20681;-84
2022/03/06 11:18:53;;;;;;;3.30;3.10;;;3.90;99.70;;;;;;5006298;28;20301;-83
2022/03/06 11:21:20;;;;;;;3.07;2.80;;;3.90;99.50;;;;;;4987909;28;20202;-83
2022/03/06 11:23:49;;;;;;;3.90;2.90;;;4.00;99.40;;;;;;4996735;28;20264;-83
2022/03/06 11:26:40;;;;;;;3.40;3.20;;;4.00;99.10;;;;;;4970912;28;20288;-83
2022/03/06 11:29:40;;;;;;;3.60;3.30;;;4.00;98.70;;;;;;5001904;28;21439;-84
2022/03/06 11:32:08;;;;;;;3.60;3.27;;;4.10;98.80;;;;;;4988400;28;20207;-84
2022/03/06 11:34:37;;;;;;;3.57;3.37;;;4.10;98.70;;;;;;5013863;28;20210;-84
2022/03/06 11:37:05;;;;;;;3.70;3.40;;;4.20;98.60;;;;;;4986675;28;20214;-82
2022/03/06 11:39:56;;;;;;;3.43;3.23;;;4.30;98.50;;;;;;4986318;28;20239;-82
2022/03/06 11:42:55;;;;;;;3.50;3.20;;;4.30;98.10;;;;;;5006312;28;20214;-81
2022/03/06 11:45:52;;;;;;;3.60;3.40;;;4.40;97.90;;;;;;4999903;28;20206;-82
2022/03/06 11:48:51;;;;;;;3.10;2.90;;;4.50;97.70;;;;;;5001155;28;20727;-82
2022/03/06 11:51:29;;;;;;;5.33;3.03;;;4.50;97.60;;;;;;4990621;28;20206;-82
2022/03/06 11:53:58;;;;;;;3.20;2.80;;;4.60;97.60;;;;;;4989410;28;20214;-82
2022/03/06 11:56:46;;;;;;;2.80;2.60;;;4.70;97.80;;;;;;4991179;28;20245;-82
2022/03/06 11:59:36;;;;;;;2.97;2.70;;;4.70;97.60;;;;;;4984093;28;20685;-82
2022/03/06 12:02:19;;;;;;;2.93;2.40;;;4.70;97.30;;;;;;4990446;28;20214;-81
2022/03/06 12:04:51;;;;;;;2.80;2.60;;;4.60;97.40;;;;;;4980551;28;20614;-82
2022/03/06 12:07:20;;;;;;;3.47;2.40;;;4.60;97.60;;;;;;4994623;28;20697;-81
2022/03/06 12:09:48;;;;;;;2.40;2.20;;;4.50;97.50;;;;;;4972796;28;20211;-82
2022/03/06 12:12:16;;;;;;;2.50;2.40;;;4.50;97.40;;;;;;4988629;28;20268;-82
2022/03/06 12:14:46;;;;;;;2.53;2.40;;;4.50;97.20;;;;;;4980039;28;20206;-81
2022/03/06 12:17:38;;;;;;;2.50;2.30;;;4.40;97.40;;;;;;5004615;28;20299;-82
2022/03/06 12:20:23;;;;;;;2.27;2.17;;;4.30;97.10;;;;;;4976040;28;20206;-81
2022/03/06 12:22:51;;;;;;;3.10;2.37;;;4.30;97.40;;;;;;4993313;28;20198;-81
2022/03/06 12:25:23;;;;;;;2.17;2.07;;;4.30;97.40;;;;;;4980510;28;20214;-85
2022/03/06 12:28:16;;;;;;;2.20;2.10;;;4.30;97.40;;;;;;4987198;28;20232;-81
2022/03/06 12:30:44;;;;;;;3.27;2.30;;;4.30;97.60;;;;;;4980492;28;20816;-81
2022/03/06 12:33:30;;;;;;;2.00;1.90;;;4.20;97.70;;;;;;4989239;28;20206;-81
2022/03/06 12:36:11;;;;;;;1.73;1.67;;;4.30;97.90;;;;;;4989457;28;20798;-81
2022/03/06 12:38:38;;;;;;;3.80;1.90;;;4.30;98.00;;;;;;4986132;28;20235;-81
2022/03/06 12:41:06;;;;;;;3.87;2.20;;;4.30;98.00;;;;;;4996388;28;20228;-81
2022/03/06 12:43:33;;;;;;;3.30;1.90;;;4.30;98.00;;;;;;4982243;28;20246;-81
2022/03/06 12:46:04;;;;;;;3.33;1.90;;;4.30;98.10;;;;;;4984579;28;20829;-82
2022/03/06 12:48:30;;;;;;;2.20;2.10;;;4.30;98.10;;;;;;4993309;28;20600;-82
2022/03/06 12:50:57;;;;;;;8.43;2.40;;;4.30;98.20;;;;;;4992150;28;20582;-81
2022/03/06 12:53:24;;;;;;;3.87;1.77;;;4.20;97.90;;;;;;4979399;28;20203;-81
2022/03/06 12:55:57;;;;;;;2.20;2.00;;;4.20;98.00;;;;;;4995196;28;20708;-82
2022/03/06 12:58:36;;;;;;;1.90;1.80;;;4.20;98.30;;;;;;4977511;28;20255;-81
2022/03/06 13:01:09;;;;;;;1.50;1.40;;;4.20;98.50;;;;;;4996992;28;20272;-81
2022/03/06 13:03:36;;;;;;;1.97;1.83;;;4.20;98.40;;;;;;4979596;28;20287;-81